sensor_id;sensor_type;location;lat;lon;timestamp;temperature;humidity
67555;HTU21D;54385;53.516;49.456;2023-05-23T00:02:08;14.12;52.97
67555;HTU21D;54385;53.516;49.456;2023-05-23T00:04:35;14.06;53.00
67555;HTU21D;54385;53.516;49.456;2023-05-23T00:07:02;14.00;53.16
67555;HTU21D;54385;53.516;49.456;2023-05-23T00:09:29;13.97;53.62
67555;HTU21D;54385;53.516;49.456;2023-05-23T00:11:55;13.98;53.74
67555;HTU21D;54385;53.516;49.456;2023-05-23T00:14:22;13.98;53.26
67555;HTU21D;54385;53.516;49.456;2023-05-23T00:16:48;13.95;52.75
67555;HTU21D;54385;53.516;49.456;2023-05-23T00:19:15;13.94;53.00
67555;HTU21D;54385;53.516;49.456;2023-05-23T00:21:43;13.93;52.87
67555;HTU21D;54385;53.516;49.456;2023-05-23T00:24:10;13.88;52.99
67555;HTU21D;54385;53.516;49.456;2023-05-23T00:26:36;13.83;53.94
67555;HTU21D;54385;53.516;49.456;2023-05-23T00:29:03;13.82;53.84
67555;HTU21D;54385;53.516;49.456;2023-05-23T00:31:30;13.78;53.93
67555;HTU21D;54385;53.516;49.456;2023-05-23T00:33:56;13.74;54.23
67555;HTU21D;54385;53.516;49.456;2023-05-23T00:36:23;13.74;54.17
67555;HTU21D;54385;53.516;49.456;2023-05-23T00:38:49;13.67;54.43
67555;HTU21D;54385;53.516;49.456;2023-05-23T00:41:15;13.54;54.66
67555;HTU21D;54385;53.516;49.456;2023-05-23T00:43:43;13.53;54.84
67555;HTU21D;54385;53.516;49.456;2023-05-23T00:46:10;13.53;54.75
67555;HTU21D;54385;53.516;49.456;2023-05-23T00:48:37;13.50;55.49
67555;HTU21D;54385;53.516;49.456;2023-05-23T00:51:04;13.40;55.37
67555;HTU21D;54385;53.516;49.456;2023-05-23T00:53:30;13.39;56.35
67555;HTU21D;54385;53.516;49.456;2023-05-23T00:55:57;13.27;56.60
67555;HTU21D;54385;53.516;49.456;2023-05-23T00:58:24;13.25;57.19
67555;HTU21D;54385;53.516;49.456;2023-05-23T01:00:51;13.22;57.27
67555;HTU21D;54385;53.516;49.456;2023-05-23T01:03:19;13.22;57.64
67555;HTU21D;54385;53.516;49.456;2023-05-23T01:05:46;13.23;57.17
67555;HTU21D;54385;53.516;49.456;2023-05-23T01:08:12;13.19;56.97
67555;HTU21D;54385;53.516;49.456;2023-05-23T01:10:40;13.25;57.07
67555;HTU21D;54385;53.516;49.456;2023-05-23T01:13:41;13.22;56.73
67555;HTU21D;54385;53.516;49.456;2023-05-23T01:16:18;13.14;56.81
67555;HTU21D;54385;53.516;49.456;2023-05-23T01:19:16;13.19;56.64
67555;HTU21D;54385;53.516;49.456;2023-05-23T01:21:52;13.27;56.24
67555;HTU21D;54385;53.516;49.456;2023-05-23T01:24:53;13.32;55.87
67555;HTU21D;54385;53.516;49.456;2023-05-23T01:30:23;13.47;56.13
67555;HTU21D;54385;53.516;49.456;2023-05-23T01:32:53;13.55;55.59
67555;HTU21D;54385;53.516;49.456;2023-05-23T01:35:30;13.56;55.94
67555;HTU21D;54385;53.516;49.456;2023-05-23T01:37:56;13.60;55.92
67555;HTU21D;54385;53.516;49.456;2023-05-23T01:40:24;13.68;55.59
67555;HTU21D;54385;53.516;49.456;2023-05-23T01:42:55;13.67;55.29
67555;HTU21D;54385;53.516;49.456;2023-05-23T01:45:25;13.64;55.31
67555;HTU21D;54385;53.516;49.456;2023-05-23T01:47:53;13.60;55.42
67555;HTU21D;54385;53.516;49.456;2023-05-23T01:50:22;13.65;55.25
67555;HTU21D;54385;53.516;49.456;2023-05-23T01:52:49;13.77;55.12
67555;HTU21D;54385;53.516;49.456;2023-05-23T01:55:18;13.85;54.41
67555;HTU21D;54385;53.516;49.456;2023-05-23T01:57:51;13.94;54.53
67555;HTU21D;54385;53.516;49.456;2023-05-23T02:00:18;14.01;54.45
67555;HTU21D;54385;53.516;49.456;2023-05-23T02:02:47;14.06;54.32
67555;HTU21D;54385;53.516;49.456;2023-05-23T02:05:14;14.13;54.20
67555;HTU21D;54385;53.516;49.456;2023-05-23T02:07:40;14.24;53.59
67555;HTU21D;54385;53.516;49.456;2023-05-23T02:10:08;14.34;53.08
67555;HTU21D;54385;53.516;49.456;2023-05-23T02:12:35;14.39;51.95
67555;HTU21D;54385;53.516;49.456;2023-05-23T02:15:01;14.51;51.98
67555;HTU21D;54385;53.516;49.456;2023-05-23T02:17:27;14.63;51.91
67555;HTU21D;54385;53.516;49.456;2023-05-23T02:19:54;14.67;51.56
67555;HTU21D;54385;53.516;49.456;2023-05-23T02:22:24;14.77;51.32
67555;HTU21D;54385;53.516;49.456;2023-05-23T02:24:51;14.85;50.93
67555;HTU21D;54385;53.516;49.456;2023-05-23T02:27:18;14.98;50.97
67555;HTU21D;54385;53.516;49.456;2023-05-23T02:29:45;15.06;50.68
67555;HTU21D;54385;53.516;49.456;2023-05-23T02:32:11;15.15;50.94
67555;HTU21D;54385;53.516;49.456;2023-05-23T02:34:38;15.29;50.24
67555;HTU21D;54385;53.516;49.456;2023-05-23T02:37:05;15.38;50.48
67555;HTU21D;54385;53.516;49.456;2023-05-23T02:39:33;15.48;50.06
67555;HTU21D;54385;53.516;49.456;2023-05-23T02:42:00;15.59;49.39
67555;HTU21D;54385;53.516;49.456;2023-05-23T02:44:27;15.68;48.97
67555;HTU21D;54385;53.516;49.456;2023-05-23T02:46:53;15.78;48.50
67555;HTU21D;54385;53.516;49.456;2023-05-23T02:49:19;15.92;47.94
67555;HTU21D;54385;53.516;49.456;2023-05-23T02:51:46;16.04;47.78
67555;HTU21D;54385;53.516;49.456;2023-05-23T02:54:13;16.17;46.95
67555;HTU21D;54385;53.516;49.456;2023-05-23T02:56:39;16.30;46.33
67555;HTU21D;54385;53.516;49.456;2023-05-23T02:59:05;16.42;46.01
67555;HTU21D;54385;53.516;49.456;2023-05-23T03:01:32;16.55;45.62
67555;HTU21D;54385;53.516;49.456;2023-05-23T03:03:58;16.64;45.28
67555;HTU21D;54385;53.516;49.456;2023-05-23T03:06:25;16.76;44.96
67555;HTU21D;54385;53.516;49.456;2023-05-23T03:08:52;16.85;44.23
67555;HTU21D;54385;53.516;49.456;2023-05-23T03:11:19;16.94;44.16
67555;HTU21D;54385;53.516;49.456;2023-05-23T03:13:45;17.04;43.74
67555;HTU21D;54385;53.516;49.456;2023-05-23T03:16:11;17.17;43.89
67555;HTU21D;54385;53.516;49.456;2023-05-23T03:18:38;17.28;43.55
67555;HTU21D;54385;53.516;49.456;2023-05-23T03:21:07;17.37;43.35
67555;HTU21D;54385;53.516;49.456;2023-05-23T03:23:34;17.50;43.02
67555;HTU21D;54385;53.516;49.456;2023-05-23T03:26:01;17.62;42.69
67555;HTU21D;54385;53.516;49.456;2023-05-23T03:28:31;17.74;42.42
67555;HTU21D;54385;53.516;49.456;2023-05-23T03:30:58;17.85;42.01
67555;HTU21D;54385;53.516;49.456;2023-05-23T03:33:26;17.96;42.12
67555;HTU21D;54385;53.516;49.456;2023-05-23T03:36:07;18.07;42.29
67555;HTU21D;54385;53.516;49.456;2023-05-23T03:38:34;18.21;41.84
67555;HTU21D;54385;53.516;49.456;2023-05-23T03:41:01;18.32;41.31
67555;HTU21D;54385;53.516;49.456;2023-05-23T03:43:27;18.42;41.58
67555;HTU21D;54385;53.516;49.456;2023-05-23T03:45:54;18.54;41.25
67555;HTU21D;54385;53.516;49.456;2023-05-23T03:48:20;18.68;41.09
67555;HTU21D;54385;53.516;49.456;2023-05-23T03:50:47;18.81;41.05
67555;HTU21D;54385;53.516;49.456;2023-05-23T03:53:13;18.93;40.87
67555;HTU21D;54385;53.516;49.456;2023-05-23T03:55:41;19.09;40.95
67555;HTU21D;54385;53.516;49.456;2023-05-23T03:58:08;19.23;40.64
67555;HTU21D;54385;53.516;49.456;2023-05-23T04:00:34;19.32;40.58
67555;HTU21D;54385;53.516;49.456;2023-05-23T04:03:00;19.46;40.51
67555;HTU21D;54385;53.516;49.456;2023-05-23T04:05:27;19.60;40.46
67555;HTU21D;54385;53.516;49.456;2023-05-23T04:07:53;19.74;39.52
67555;HTU21D;54385;53.516;49.456;2023-05-23T04:10:20;19.89;39.56
67555;HTU21D;54385;53.516;49.456;2023-05-23T04:12:46;20.00;38.44
67555;HTU21D;54385;53.516;49.456;2023-05-23T04:15:13;20.14;38.20
67555;HTU21D;54385;53.516;49.456;2023-05-23T04:17:39;20.27;37.86
67555;HTU21D;54385;53.516;49.456;2023-05-23T04:20:07;20.41;37.28
67555;HTU21D;54385;53.516;49.456;2023-05-23T04:22:34;20.56;36.52
67555;HTU21D;54385;53.516;49.456;2023-05-23T04:25:01;20.72;36.41
67555;HTU21D;54385;53.516;49.456;2023-05-23T04:27:27;20.86;34.83
67555;HTU21D;54385;53.516;49.456;2023-05-23T04:29:56;20.94;34.42
67555;HTU21D;54385;53.516;49.456;2023-05-23T04:32:23;21.06;34.14
67555;HTU21D;54385;53.516;49.456;2023-05-23T04:34:50;21.19;33.57
67555;HTU21D;54385;53.516;49.456;2023-05-23T04:37:18;21.34;33.12
67555;HTU21D;54385;53.516;49.456;2023-05-23T04:39:51;21.49;32.40
67555;HTU21D;54385;53.516;49.456;2023-05-23T04:42:21;21.58;31.93
67555;HTU21D;54385;53.516;49.456;2023-05-23T04:44:54;21.67;32.25
67555;HTU21D;54385;53.516;49.456;2023-05-23T04:47:26;21.82;32.38
67555;HTU21D;54385;53.516;49.456;2023-05-23T04:49:56;21.94;31.91
67555;HTU21D;54385;53.516;49.456;2023-05-23T04:52:23;22.05;31.77
67555;HTU21D;54385;53.516;49.456;2023-05-23T04:54:53;22.20;31.84
67555;HTU21D;54385;53.516;49.456;2023-05-23T04:57:20;22.32;30.87
67555;HTU21D;54385;53.516;49.456;2023-05-23T04:59:47;22.40;30.06
67555;HTU21D;54385;53.516;49.456;2023-05-23T05:02:14;22.49;30.07
67555;HTU21D;54385;53.516;49.456;2023-05-23T05:04:40;22.65;30.20
67555;HTU21D;54385;53.516;49.456;2023-05-23T05:07:07;22.79;30.09
67555;HTU21D;54385;53.516;49.456;2023-05-23T05:09:34;22.92;28.80
67555;HTU21D;54385;53.516;49.456;2023-05-23T05:12:04;23.03;28.80
67555;HTU21D;54385;53.516;49.456;2023-05-23T05:14:31;23.15;29.70
67555;HTU21D;54385;53.516;49.456;2023-05-23T05:16:57;23.31;28.72
67555;HTU21D;54385;53.516;49.456;2023-05-23T05:19:24;23.39;28.67
67555;HTU21D;54385;53.516;49.456;2023-05-23T05:21:51;23.45;28.20
67555;HTU21D;54385;53.516;49.456;2023-05-23T05:24:17;23.47;28.22
67555;HTU21D;54385;53.516;49.456;2023-05-23T05:26:47;23.60;27.71
67555;HTU21D;54385;53.516;49.456;2023-05-23T05:29:13;23.74;27.66
67555;HTU21D;54385;53.516;49.456;2023-05-23T05:31:41;23.87;27.10
67555;HTU21D;54385;53.516;49.456;2023-05-23T05:34:10;24.02;26.85
67555;HTU21D;54385;53.516;49.456;2023-05-23T05:36:43;24.13;26.63
67555;HTU21D;54385;53.516;49.456;2023-05-23T05:39:19;24.20;26.62
67555;HTU21D;54385;53.516;49.456;2023-05-23T05:41:46;24.28;26.30
67555;HTU21D;54385;53.516;49.456;2023-05-23T05:44:15;24.43;26.14
67555;HTU21D;54385;53.516;49.456;2023-05-23T05:46:55;24.51;25.49
67555;HTU21D;54385;53.516;49.456;2023-05-23T05:49:22;24.48;25.11
67555;HTU21D;54385;53.516;49.456;2023-05-23T05:51:49;24.54;25.75
67555;HTU21D;54385;53.516;49.456;2023-05-23T05:54:17;24.61;25.56
67555;HTU21D;54385;53.516;49.456;2023-05-23T05:56:43;24.63;25.59
67555;HTU21D;54385;53.516;49.456;2023-05-23T05:59:10;24.71;24.64
67555;HTU21D;54385;53.516;49.456;2023-05-23T06:01:40;24.72;24.90
67555;HTU21D;54385;53.516;49.456;2023-05-23T06:04:06;24.78;24.25
67555;HTU21D;54385;53.516;49.456;2023-05-23T06:06:33;24.86;24.37
67555;HTU21D;54385;53.516;49.456;2023-05-23T06:09:00;24.95;24.15
67555;HTU21D;54385;53.516;49.456;2023-05-23T06:11:29;25.03;24.36
67555;HTU21D;54385;53.516;49.456;2023-05-23T06:13:59;25.16;24.57
67555;HTU21D;54385;53.516;49.456;2023-05-23T06:16:32;25.27;24.26
67555;HTU21D;54385;53.516;49.456;2023-05-23T06:19:06;25.22;23.76
67555;HTU21D;54385;53.516;49.456;2023-05-23T06:21:33;25.27;23.60
67555;HTU21D;54385;53.516;49.456;2023-05-23T06:23:59;25.21;23.14
67555;HTU21D;54385;53.516;49.456;2023-05-23T06:26:26;25.28;23.51
67555;HTU21D;54385;53.516;49.456;2023-05-23T06:28:53;25.32;23.17
67555;HTU21D;54385;53.516;49.456;2023-05-23T06:31:19;25.46;23.50
67555;HTU21D;54385;53.516;49.456;2023-05-23T06:33:46;25.50;23.08
67555;HTU21D;54385;53.516;49.456;2023-05-23T06:36:12;25.59;23.24
67555;HTU21D;54385;53.516;49.456;2023-05-23T06:38:39;25.72;23.05
67555;HTU21D;54385;53.516;49.456;2023-05-23T06:41:06;25.77;22.34
67555;HTU21D;54385;53.516;49.456;2023-05-23T06:43:32;25.92;22.93
67555;HTU21D;54385;53.516;49.456;2023-05-23T06:46:02;25.91;21.79
67555;HTU21D;54385;53.516;49.456;2023-05-23T06:48:38;26.03;21.49
67555;HTU21D;54385;53.516;49.456;2023-05-23T06:51:06;26.12;21.57
67555;HTU21D;54385;53.516;49.456;2023-05-23T06:53:35;26.20;21.18
67555;HTU21D;54385;53.516;49.456;2023-05-23T06:56:04;26.26;20.48
67555;HTU21D;54385;53.516;49.456;2023-05-23T06:58:31;26.33;21.14
67555;HTU21D;54385;53.516;49.456;2023-05-23T07:00:57;26.36;20.88
67555;HTU21D;54385;53.516;49.456;2023-05-23T07:03:24;26.46;21.08
67555;HTU21D;54385;53.516;49.456;2023-05-23T07:05:51;26.55;20.33
67555;HTU21D;54385;53.516;49.456;2023-05-23T07:08:17;26.65;20.75
67555;HTU21D;54385;53.516;49.456;2023-05-23T07:10:44;26.64;20.46
67555;HTU21D;54385;53.516;49.456;2023-05-23T07:13:11;26.67;20.35
67555;HTU21D;54385;53.516;49.456;2023-05-23T07:15:37;26.78;20.76
67555;HTU21D;54385;53.516;49.456;2023-05-23T07:18:04;26.83;20.67
67555;HTU21D;54385;53.516;49.456;2023-05-23T07:20:34;26.87;19.90
67555;HTU21D;54385;53.516;49.456;2023-05-23T07:23:03;26.96;19.85
67555;HTU21D;54385;53.516;49.456;2023-05-23T07:25:29;27.01;20.25
67555;HTU21D;54385;53.516;49.456;2023-05-23T07:27:56;27.08;19.64
67555;HTU21D;54385;53.516;49.456;2023-05-23T07:30:24;27.15;19.57
67555;HTU21D;54385;53.516;49.456;2023-05-23T07:32:55;27.25;19.42
67555;HTU21D;54385;53.516;49.456;2023-05-23T07:35:33;27.27;19.25
67555;HTU21D;54385;53.516;49.456;2023-05-23T07:38:02;27.28;19.09
67555;HTU21D;54385;53.516;49.456;2023-05-23T07:40:39;27.34;19.51
67555;HTU21D;54385;53.516;49.456;2023-05-23T07:43:12;27.46;19.01
67555;HTU21D;54385;53.516;49.456;2023-05-23T07:45:54;27.54;19.12
67555;HTU21D;54385;53.516;49.456;2023-05-23T07:48:26;27.60;19.35
67555;HTU21D;54385;53.516;49.456;2023-05-23T07:50:57;27.64;19.57
67555;HTU21D;54385;53.516;49.456;2023-05-23T07:53:24;27.79;19.12
67555;HTU21D;54385;53.516;49.456;2023-05-23T07:55:51;27.85;19.87
67555;HTU21D;54385;53.516;49.456;2023-05-23T07:58:18;27.97;19.33
67555;HTU21D;54385;53.516;49.456;2023-05-23T08:00:48;28.06;17.90
67555;HTU21D;54385;53.516;49.456;2023-05-23T08:03:15;28.04;18.43
67555;HTU21D;54385;53.516;49.456;2023-05-23T08:05:44;28.02;18.00
67555;HTU21D;54385;53.516;49.456;2023-05-23T08:08:10;27.89;18.42
67555;HTU21D;54385;53.516;49.456;2023-05-23T08:10:37;28.09;17.64
67555;HTU21D;54385;53.516;49.456;2023-05-23T08:13:05;28.21;17.30
67555;HTU21D;54385;53.516;49.456;2023-05-23T08:15:32;28.25;17.33
67555;HTU21D;54385;53.516;49.456;2023-05-23T08:17:58;28.27;17.19
67555;HTU21D;54385;53.516;49.456;2023-05-23T08:20:26;28.18;17.44
67555;HTU21D;54385;53.516;49.456;2023-05-23T08:22:59;28.28;17.21
67555;HTU21D;54385;53.516;49.456;2023-05-23T08:25:27;28.42;18.08
67555;HTU21D;54385;53.516;49.456;2023-05-23T08:27:59;28.48;17.25
67555;HTU21D;54385;53.516;49.456;2023-05-23T08:30:27;28.53;17.89
67555;HTU21D;54385;53.516;49.456;2023-05-23T08:32:54;28.53;17.41
67555;HTU21D;54385;53.516;49.456;2023-05-23T08:35:22;28.71;16.98
67555;HTU21D;54385;53.516;49.456;2023-05-23T08:37:49;28.80;16.43
67555;HTU21D;54385;53.516;49.456;2023-05-23T08:40:21;28.87;16.40
67555;HTU21D;54385;53.516;49.456;2023-05-23T08:42:48;29.03;16.79
67555;HTU21D;54385;53.516;49.456;2023-05-23T08:45:16;29.18;16.55
67555;HTU21D;54385;53.516;49.456;2023-05-23T08:47:50;29.33;15.55
67555;HTU21D;54385;53.516;49.456;2023-05-23T08:50:18;29.30;15.38
67555;HTU21D;54385;53.516;49.456;2023-05-23T08:59:04;29.28;15.38
67555;HTU21D;54385;53.516;49.456;2023-05-23T09:01:31;29.27;15.00
67555;HTU21D;54385;53.516;49.456;2023-05-23T09:03:59;29.30;14.83
67555;HTU21D;54385;53.516;49.456;2023-05-23T09:06:30;29.35;14.54
67555;HTU21D;54385;53.516;49.456;2023-05-23T09:08:57;29.42;15.10
67555;HTU21D;54385;53.516;49.456;2023-05-23T09:11:24;29.50;14.80
67555;HTU21D;54385;53.516;49.456;2023-05-23T09:13:50;29.47;14.58
67555;HTU21D;54385;53.516;49.456;2023-05-23T09:16:18;29.50;14.90
67555;HTU21D;54385;53.516;49.456;2023-05-23T09:18:45;29.66;14.52
67555;HTU21D;54385;53.516;49.456;2023-05-23T09:21:12;29.70;14.08
67555;HTU21D;54385;53.516;49.456;2023-05-23T09:23:40;29.73;14.39
67555;HTU21D;54385;53.516;49.456;2023-05-23T09:26:11;29.80;14.11
67555;HTU21D;54385;53.516;49.456;2023-05-23T09:28:42;29.90;14.21
67555;HTU21D;54385;53.516;49.456;2023-05-23T09:31:08;29.97;14.95
67555;HTU21D;54385;53.516;49.456;2023-05-23T09:33:42;30.09;13.58
67555;HTU21D;54385;53.516;49.456;2023-05-23T09:36:08;30.19;13.83
67555;HTU21D;54385;53.516;49.456;2023-05-23T09:38:39;30.23;13.68
67555;HTU21D;54385;53.516;49.456;2023-05-23T09:41:06;30.10;14.33
67555;HTU21D;54385;53.516;49.456;2023-05-23T09:43:36;30.56;14.52
67555;HTU21D;54385;53.516;49.456;2023-05-23T09:46:08;31.02;13.74
67555;HTU21D;54385;53.516;49.456;2023-05-23T09:48:39;31.43;13.30
67555;HTU21D;54385;53.516;49.456;2023-05-23T09:51:09;31.81;12.81
67555;HTU21D;54385;53.516;49.456;2023-05-23T09:53:36;32.29;12.98
67555;HTU21D;54385;53.516;49.456;2023-05-23T09:56:03;32.68;12.37
67555;HTU21D;54385;53.516;49.456;2023-05-23T09:58:32;32.92;12.48
67555;HTU21D;54385;53.516;49.456;2023-05-23T10:00:59;33.41;12.01
67555;HTU21D;54385;53.516;49.456;2023-05-23T10:03:52;33.93;10.86
67555;HTU21D;54385;53.516;49.456;2023-05-23T10:06:25;34.56;11.33
67555;HTU21D;54385;53.516;49.456;2023-05-23T10:09:06;34.88;9.72
67555;HTU21D;54385;53.516;49.456;2023-05-23T10:14:23;35.29;10.72
67555;HTU21D;54385;53.516;49.456;2023-05-23T10:17:07;34.93;10.31
67555;HTU21D;54385;53.516;49.456;2023-05-23T10:20:00;34.26;10.30
67555;HTU21D;54385;53.516;49.456;2023-05-23T10:22:36;33.86;11.34
67555;HTU21D;54385;53.516;49.456;2023-05-23T10:25:04;33.70;11.64
67555;HTU21D;54385;53.516;49.456;2023-05-23T10:27:31;33.93;11.97
67555;HTU21D;54385;53.516;49.456;2023-05-23T10:29:58;34.10;11.66
67555;HTU21D;54385;53.516;49.456;2023-05-23T10:32:26;34.09;11.76
67555;HTU21D;54385;53.516;49.456;2023-05-23T10:38:01;33.52;11.62
67555;HTU21D;54385;53.516;49.456;2023-05-23T10:40:57;33.28;12.29
67555;HTU21D;54385;53.516;49.456;2023-05-23T10:46:01;32.84;12.53
67555;HTU21D;54385;53.516;49.456;2023-05-23T10:51:05;32.41;12.61
67555;HTU21D;54385;53.516;49.456;2023-05-23T10:53:35;32.56;12.54
67555;HTU21D;54385;53.516;49.456;2023-05-23T10:56:04;32.68;13.79
67555;HTU21D;54385;53.516;49.456;2023-05-23T10:58:34;33.01;12.70
67555;HTU21D;54385;53.516;49.456;2023-05-23T11:01:05;33.49;12.52
67555;HTU21D;54385;53.516;49.456;2023-05-23T11:06:36;34.68;11.21
67555;HTU21D;54385;53.516;49.456;2023-05-23T11:09:04;34.81;11.72
67555;HTU21D;54385;53.516;49.456;2023-05-23T11:19:39;34.37;10.75
67555;HTU21D;54385;53.516;49.456;2023-05-23T11:22:21;34.32;11.46
67555;HTU21D;54385;53.516;49.456;2023-05-23T11:24:54;34.62;11.56
67555;HTU21D;54385;53.516;49.456;2023-05-23T11:30:05;34.86;11.06
67555;HTU21D;54385;53.516;49.456;2023-05-23T11:32:32;34.75;10.33
67555;HTU21D;54385;53.516;49.456;2023-05-23T11:35:03;34.48;10.83
67555;HTU21D;54385;53.516;49.456;2023-05-23T11:37:30;34.53;11.00
67555;HTU21D;54385;53.516;49.456;2023-05-23T11:39:57;34.85;11.14
67555;HTU21D;54385;53.516;49.456;2023-05-23T11:42:23;35.00;10.36
67555;HTU21D;54385;53.516;49.456;2023-05-23T11:44:51;35.42;10.11
67555;HTU21D;54385;53.516;49.456;2023-05-23T11:47:18;35.63;9.82
67555;HTU21D;54385;53.516;49.456;2023-05-23T11:49:46;36.00;9.88
67555;HTU21D;54385;53.516;49.456;2023-05-23T11:52:13;36.14;9.40
67555;HTU21D;54385;53.516;49.456;2023-05-23T11:54:40;36.69;9.05
67555;HTU21D;54385;53.516;49.456;2023-05-23T11:57:10;36.61;8.72
67555;HTU21D;54385;53.516;49.456;2023-05-23T11:59:39;36.62;8.68
67555;HTU21D;54385;53.516;49.456;2023-05-23T12:02:06;37.00;8.79
67555;HTU21D;54385;53.516;49.456;2023-05-23T12:04:36;37.35;8.47
67555;HTU21D;54385;53.516;49.456;2023-05-23T12:07:05;37.29;8.15
67555;HTU21D;54385;53.516;49.456;2023-05-23T12:09:41;37.03;8.14
67555;HTU21D;54385;53.516;49.456;2023-05-23T12:12:07;36.78;8.87
67555;HTU21D;54385;53.516;49.456;2023-05-23T12:14:33;36.43;9.19
67555;HTU21D;54385;53.516;49.456;2023-05-23T12:17:00;35.94;9.72
67555;HTU21D;54385;53.516;49.456;2023-05-23T12:19:27;36.18;9.52
67555;HTU21D;54385;53.516;49.456;2023-05-23T12:21:53;36.44;9.50
67555;HTU21D;54385;53.516;49.456;2023-05-23T12:24:21;36.88;9.59
67555;HTU21D;54385;53.516;49.456;2023-05-23T12:26:52;37.20;9.53
67555;HTU21D;54385;53.516;49.456;2023-05-23T12:29:20;37.61;9.24
67555;HTU21D;54385;53.516;49.456;2023-05-23T12:31:48;37.05;8.54
67555;HTU21D;54385;53.516;49.456;2023-05-23T12:34:15;37.03;8.23
67555;HTU21D;54385;53.516;49.456;2023-05-23T12:36:42;36.72;8.76
67555;HTU21D;54385;53.516;49.456;2023-05-23T12:39:09;36.40;9.08
67555;HTU21D;54385;53.516;49.456;2023-05-23T12:41:36;36.91;9.33
67555;HTU21D;54385;53.516;49.456;2023-05-23T12:44:02;36.77;8.92
67555;HTU21D;54385;53.516;49.456;2023-05-23T12:46:29;36.43;9.11
67555;HTU21D;54385;53.516;49.456;2023-05-23T12:48:56;36.41;8.92
67555;HTU21D;54385;53.516;49.456;2023-05-23T12:51:22;36.34;9.30
67555;HTU21D;54385;53.516;49.456;2023-05-23T12:53:49;36.12;9.03
67555;HTU21D;54385;53.516;49.456;2023-05-23T12:56:16;35.80;9.52
67555;HTU21D;54385;53.516;49.456;2023-05-23T12:58:42;35.97;9.16
67555;HTU21D;54385;53.516;49.456;2023-05-23T13:01:09;36.17;8.96
67555;HTU21D;54385;53.516;49.456;2023-05-23T13:03:39;36.61;8.96
67555;HTU21D;54385;53.516;49.456;2023-05-23T13:06:05;36.36;8.79
67555;HTU21D;54385;53.516;49.456;2023-05-23T13:08:32;36.14;9.16
67555;HTU21D;54385;53.516;49.456;2023-05-23T13:10:58;36.62;8.59
67555;HTU21D;54385;53.516;49.456;2023-05-23T13:13:25;37.02;8.30
67555;HTU21D;54385;53.516;49.456;2023-05-23T13:15:52;37.58;7.77
67555;HTU21D;54385;53.516;49.456;2023-05-23T13:18:18;37.69;7.77
67555;HTU21D;54385;53.516;49.456;2023-05-23T13:20:45;37.89;7.98
67555;HTU21D;54385;53.516;49.456;2023-05-23T13:23:11;38.45;7.72
67555;HTU21D;54385;53.516;49.456;2023-05-23T13:25:38;38.44;7.10
67555;HTU21D;54385;53.516;49.456;2023-05-23T13:28:04;38.45;7.13
67555;HTU21D;54385;53.516;49.456;2023-05-23T13:30:31;38.73;7.11
67555;HTU21D;54385;53.516;49.456;2023-05-23T13:32:58;38.60;7.07
67555;HTU21D;54385;53.516;49.456;2023-05-23T13:35:24;38.22;7.50
67555;HTU21D;54385;53.516;49.456;2023-05-23T13:37:51;38.38;7.37
67555;HTU21D;54385;53.516;49.456;2023-05-23T13:40:19;38.28;7.05
67555;HTU21D;54385;53.516;49.456;2023-05-23T13:42:50;37.96;7.34
67555;HTU21D;54385;53.516;49.456;2023-05-23T13:45:17;38.07;7.50
67555;HTU21D;54385;53.516;49.456;2023-05-23T13:47:44;37.67;7.60
67555;HTU21D;54385;53.516;49.456;2023-05-23T13:50:11;37.48;7.47
67555;HTU21D;54385;53.516;49.456;2023-05-23T13:52:38;37.52;7.31
67555;HTU21D;54385;53.516;49.456;2023-05-23T13:55:06;37.72;7.18
67555;HTU21D;54385;53.516;49.456;2023-05-23T13:57:32;36.97;7.69
67555;HTU21D;54385;53.516;49.456;2023-05-23T13:59:59;36.60;7.88
67555;HTU21D;54385;53.516;49.456;2023-05-23T14:02:25;36.25;8.00
67555;HTU21D;54385;53.516;49.456;2023-05-23T14:04:52;36.16;8.11
67555;HTU21D;54385;53.516;49.456;2023-05-23T14:07:18;35.68;8.37
67555;HTU21D;54385;53.516;49.456;2023-05-23T14:09:45;35.14;8.87
67555;HTU21D;54385;53.516;49.456;2023-05-23T14:12:11;34.14;9.78
67555;HTU21D;54385;53.516;49.456;2023-05-23T14:14:38;33.64;10.20
67555;HTU21D;54385;53.516;49.456;2023-05-23T14:17:05;33.09;10.60
67555;HTU21D;54385;53.516;49.456;2023-05-23T14:19:31;32.72;11.07
67555;HTU21D;54385;53.516;49.456;2023-05-23T14:21:57;32.54;11.32
67555;HTU21D;54385;53.516;49.456;2023-05-23T14:24:24;32.40;11.75
67555;HTU21D;54385;53.516;49.456;2023-05-23T14:26:50;31.97;12.10
67555;HTU21D;54385;53.516;49.456;2023-05-23T14:29:17;31.78;11.90
67555;HTU21D;54385;53.516;49.456;2023-05-23T14:31:43;31.55;12.07
67555;HTU21D;54385;53.516;49.456;2023-05-23T14:34:10;31.40;12.42
67555;HTU21D;54385;53.516;49.456;2023-05-23T14:36:37;31.14;12.73
67555;HTU21D;54385;53.516;49.456;2023-05-23T14:39:04;30.74;13.18
67555;HTU21D;54385;53.516;49.456;2023-05-23T14:41:32;30.49;13.12
67555;HTU21D;54385;53.516;49.456;2023-05-23T14:43:58;30.44;13.34
67555;HTU21D;54385;53.516;49.456;2023-05-23T14:46:25;30.38;13.58
67555;HTU21D;54385;53.516;49.456;2023-05-23T14:48:51;30.45;13.99
67555;HTU21D;54385;53.516;49.456;2023-05-23T14:51:17;30.32;13.71
67555;HTU21D;54385;53.516;49.456;2023-05-23T14:53:44;30.01;14.32
67555;HTU21D;54385;53.516;49.456;2023-05-23T14:56:11;29.88;14.16
67555;HTU21D;54385;53.516;49.456;2023-05-23T14:58:37;29.67;14.28
67555;HTU21D;54385;53.516;49.456;2023-05-23T15:01:06;29.68;14.44
67555;HTU21D;54385;53.516;49.456;2023-05-23T15:03:32;29.54;14.64
67555;HTU21D;54385;53.516;49.456;2023-05-23T15:05:59;29.35;14.91
67555;HTU21D;54385;53.516;49.456;2023-05-23T15:08:25;29.28;14.96
67555;HTU21D;54385;53.516;49.456;2023-05-23T15:10:52;29.19;15.14
67555;HTU21D;54385;53.516;49.456;2023-05-23T15:13:19;29.06;15.29
67555;HTU21D;54385;53.516;49.456;2023-05-23T15:15:45;28.94;15.68
67555;HTU21D;54385;53.516;49.456;2023-05-23T15:18:14;28.63;15.77
67555;HTU21D;54385;53.516;49.456;2023-05-23T15:20:40;28.58;15.92
67555;HTU21D;54385;53.516;49.456;2023-05-23T15:23:06;28.43;15.99
67555;HTU21D;54385;53.516;49.456;2023-05-23T15:25:33;28.46;16.38
67555;HTU21D;54385;53.516;49.456;2023-05-23T15:27:59;28.39;16.12
67555;HTU21D;54385;53.516;49.456;2023-05-23T15:30:26;28.34;16.34
67555;HTU21D;54385;53.516;49.456;2023-05-23T15:32:52;28.19;16.35
67555;HTU21D;54385;53.516;49.456;2023-05-23T15:35:19;28.11;16.70
67555;HTU21D;54385;53.516;49.456;2023-05-23T15:37:46;28.08;16.53
67555;HTU21D;54385;53.516;49.456;2023-05-23T15:40:12;27.88;16.80
67555;HTU21D;54385;53.516;49.456;2023-05-23T15:42:39;27.81;16.99
67555;HTU21D;54385;53.516;49.456;2023-05-23T15:45:06;27.79;17.23
67555;HTU21D;54385;53.516;49.456;2023-05-23T15:47:33;27.72;17.39